Main page
METAR-TAF:

METAR-TAF

Airports :

Leeming, England

RAF Leeming

latitude: 54-18N, longitude: 001-32W, elevation: 40 m

Current weather observation

The report was made 56 minutes ago, at 07:50 UTC
Wind 7 kt from the West/Northwest
Temperature 15°C
Humidity 63%
Pressure 1018 hPa
Visibility 10 km or more
Few clouds at a height of 2800 ft
Scattered clouds at a height of 25000 ft

METAR: EGXE 230750Z 29007KT 9999 FEW028 SCT250 15/08 Q1018 BLU

Time: 09:46 (08:46 UTC)

Forecast

The report was made 16 hours and 23 minutes ago, at 16:23 UTC
Forecast valid from 22 at 18 UTC to 22 at 23 UTC
Wind 12 kt from the South
Visibility 10 km or more
no clouds below 1500 m and no cumulonimbus

TAF: EGXE 221623Z 2218/2223 19012KT CAVOK

Weather observations and forecasts of more than 4000 airports (METAR and TAF reports).

The available stations are represented by yellow and red dots on the map.

Hover mouse over dot to see the name of the station.

Then click to see weather observations and forecasts.

To change the map : click on the green buttons with a black cross to zoom in, on the green button with a dash to zoom out, or on the green arrows for adjacent maps.


METAR-TAF: